createdAt,value
2017-12-30T00:00:32.568Z,2.03
2017-12-30T00:01:35.053Z,2.10
2017-12-30T00:02:37.532Z,2.08
2017-12-30T00:03:40.013Z,1.87
2017-12-30T00:04:42.494Z,2.10
2017-12-30T00:05:44.967Z,2.47
2017-12-30T00:06:47.443Z,2.47
2017-12-30T00:07:49.910Z,1.80
2017-12-30T00:08:52.374Z,1.95
2017-12-30T00:09:54.847Z,2.70
2017-12-30T00:10:57.328Z,1.95
2017-12-30T00:11:59.800Z,1.77
2017-12-30T00:13:02.274Z,1.60
2017-12-30T00:14:04.740Z,1.93
2017-12-30T00:15:07.203Z,1.90
2017-12-30T00:16:09.672Z,1.92
2017-12-30T00:17:12.143Z,1.98
2017-12-30T00:18:14.626Z,2.65
2017-12-30T00:19:17.085Z,2.28
2017-12-30T00:20:19.542Z,2.15
2017-12-30T00:21:22.016Z,1.90
2017-12-30T00:22:24.488Z,2.10
2017-12-30T00:23:26.960Z,1.85
2017-12-30T00:24:29.421Z,2.17
2017-12-30T00:25:31.900Z,1.90
2017-12-30T00:26:34.365Z,1.90
2017-12-30T00:27:36.821Z,1.80
2017-12-30T00:28:39.304Z,1.80
2017-12-30T00:29:41.770Z,1.70
2017-12-30T00:30:44.250Z,1.50
2017-12-30T00:31:46.710Z,2.20
2017-12-30T00:32:49.188Z,2.25
2017-12-30T00:33:51.663Z,1.90
2017-12-30T00:34:54.160Z,1.95
2017-12-30T00:35:56.632Z,2.15
2017-12-30T00:36:59.112Z,2.00
2017-12-30T00:38:01.600Z,1.90
2017-12-30T00:39:04.054Z,2.00
2017-12-30T00:40:06.528Z,1.90
2017-12-30T00:41:09.008Z,2.00
2017-12-30T00:42:11.492Z,2.10
2017-12-30T00:43:13.964Z,1.75
2017-12-30T00:44:16.422Z,1.85
2017-12-30T00:45:18.893Z,1.83
2017-12-30T00:46:21.355Z,2.12
2017-12-30T00:47:23.857Z,1.52
2017-12-30T00:48:26.413Z,1.90
2017-12-30T00:49:28.874Z,2.05
2017-12-30T00:50:31.334Z,1.92
2017-12-30T00:51:33.795Z,1.95
2017-12-30T00:52:36.276Z,2.08
2017-12-30T00:53:38.733Z,1.80
2017-12-30T00:54:41.194Z,1.92
2017-12-30T00:55:43.653Z,1.98
2017-12-30T00:56:46.114Z,1.30
2017-12-30T00:57:48.595Z,1.67
2017-12-30T00:58:51.072Z,1.92
2017-12-30T00:59:53.539Z,2.15
2017-12-30T01:00:56.014Z,3.05
2017-12-30T01:01:58.495Z,1.83
2017-12-30T01:03:00.970Z,2.00
2017-12-30T01:04:03.448Z,1.98
2017-12-30T01:05:05.910Z,2.40
2017-12-30T01:06:08.369Z,1.90
2017-12-30T01:07:10.850Z,1.42
2017-12-30T01:08:13.328Z,1.60
2017-12-30T01:09:15.804Z,1.50
2017-12-30T01:10:18.332Z,1.73
2017-12-30T01:11:20.804Z,1.90
2017-12-30T01:12:23.276Z,1.90
2017-12-30T01:13:25.752Z,2.10
2017-12-30T01:14:28.214Z,1.92
2017-12-30T01:15:30.688Z,1.90
2017-12-30T01:16:33.164Z,2.30
2017-12-30T01:17:35.626Z,1.70
2017-12-30T01:18:38.090Z,1.70
2017-12-30T01:19:40.577Z,1.42
2017-12-30T01:20:43.060Z,1.75
2017-12-30T01:21:45.531Z,1.95
2017-12-30T01:22:48.031Z,1.95
2017-12-30T01:23:50.498Z,2.47
2017-12-30T01:24:52.987Z,1.60
2017-12-30T01:25:55.462Z,1.55
2017-12-30T01:26:57.935Z,2.15
2017-12-30T01:28:00.390Z,1.70
2017-12-30T01:29:02.872Z,1.30
2017-12-30T01:30:05.353Z,1.40
2017-12-30T01:31:07.805Z,1.50
2017-12-30T01:32:10.279Z,1.70
2017-12-30T01:33:12.754Z,1.45
2017-12-30T01:34:15.232Z,1.40
2017-12-30T01:35:17.692Z,1.73
2017-12-30T01:36:20.182Z,1.60
2017-12-30T01:37:22.646Z,1.58
2017-12-30T01:38:25.114Z,1.60
2017-12-30T01:39:27.570Z,1.52
2017-12-30T01:40:30.038Z,1.80
2017-12-30T01:41:32.516Z,1.70
2017-12-30T01:42:34.975Z,1.80
2017-12-30T01:43:37.468Z,1.52
2017-12-30T01:44:39.925Z,1.52
2017-12-30T01:45:42.382Z,1.75
2017-12-30T01:46:44.858Z,1.50
2017-12-30T01:47:47.314Z,1.42
2017-12-30T01:49:01.751Z,1.60
2017-12-30T01:50:04.227Z,1.35
2017-12-30T01:51:06.699Z,1.60
2017-12-30T01:52:09.158Z,1.40
2017-12-30T01:53:11.628Z,1.50
2017-12-30T01:54:14.124Z,1.95
2017-12-30T01:55:16.581Z,1.37
2017-12-30T01:56:19.042Z,1.42
2017-12-30T01:57:21.502Z,1.65
2017-12-30T01:58:23.980Z,1.70
2017-12-30T01:59:26.468Z,1.50
2017-12-30T02:00:28.948Z,1.12
2017-12-30T02:01:31.433Z,1.20
2017-12-30T02:02:33.902Z,1.33
2017-12-30T02:03:36.376Z,1.80
2017-12-30T02:04:38.854Z,1.52
2017-12-30T02:05:41.328Z,1.67
2017-12-30T02:06:43.794Z,1.87
2017-12-30T02:07:46.271Z,1.90
2017-12-30T02:08:48.743Z,1.60
2017-12-30T02:09:51.252Z,1.42
2017-12-30T02:10:53.729Z,1.25
2017-12-30T02:11:56.189Z,1.52
2017-12-30T02:12:58.646Z,1.48
2017-12-30T02:14:01.102Z,1.20
2017-12-30T02:15:03.600Z,1.52
2017-12-30T02:16:06.072Z,1.30
2017-12-30T02:17:08.544Z,1.50
2017-12-30T02:18:11.016Z,1.30
2017-12-30T02:19:13.478Z,1.73
2017-12-30T02:20:15.957Z,1.35
2017-12-30T02:21:18.414Z,1.30
2017-12-30T02:22:20.892Z,1.40
2017-12-30T02:23:23.360Z,1.60
2017-12-30T02:24:25.843Z,1.55
2017-12-30T02:25:28.321Z,1.55
2017-12-30T02:26:30.800Z,1.35
2017-12-30T02:27:33.283Z,1.60
2017-12-30T02:28:35.742Z,1.35
2017-12-30T02:29:38.212Z,2.00
2017-12-30T02:30:40.691Z,1.52
2017-12-30T02:31:43.154Z,1.87
2017-12-30T02:32:45.622Z,1.35
2017-12-30T02:33:48.085Z,1.58
2017-12-30T02:34:50.564Z,1.23
2017-12-30T02:35:53.051Z,1.60
2017-12-30T02:36:55.532Z,1.37
2017-12-30T02:37:57.993Z,1.58
2017-12-30T02:39:00.454Z,1.50
2017-12-30T02:40:02.918Z,1.20
2017-12-30T02:41:05.423Z,1.35
2017-12-30T02:42:07.878Z,1.40
2017-12-30T02:43:10.340Z,1.50
2017-12-30T02:44:12.813Z,2.00
2017-12-30T02:45:15.274Z,2.53
2017-12-30T02:46:17.772Z,1.60
2017-12-30T02:47:20.252Z,2.05
2017-12-30T02:48:22.723Z,1.60
2017-12-30T02:49:25.207Z,1.40
2017-12-30T02:50:27.680Z,1.25
2017-12-30T02:51:30.172Z,1.65
2017-12-30T02:52:32.634Z,2.00
2017-12-30T02:53:35.093Z,1.55
2017-12-30T02:54:37.569Z,1.40
2017-12-30T02:55:40.083Z,1.70
2017-12-30T02:56:42.568Z,1.33
2017-12-30T02:57:45.124Z,1.62
2017-12-30T02:58:47.614Z,1.98
2017-12-30T02:59:50.077Z,1.95
2017-12-30T03:00:52.562Z,1.58
2017-12-30T03:01:55.057Z,1.77
2017-12-30T03:02:57.517Z,2.28
2017-12-30T03:03:59.988Z,1.33
2017-12-30T03:05:02.460Z,1.30
2017-12-30T03:06:04.944Z,2.40
2017-12-30T03:07:07.427Z,1.30
2017-12-30T03:08:09.881Z,1.35
2017-12-30T03:09:12.341Z,1.42
2017-12-30T03:10:14.801Z,1.37
2017-12-30T03:11:17.276Z,1.27
2017-12-30T03:12:19.758Z,1.35
2017-12-30T03:13:22.217Z,1.30
2017-12-30T03:14:24.673Z,1.50
2017-12-30T03:15:27.148Z,1.60
2017-12-30T03:16:29.625Z,1.50
2017-12-30T03:17:32.126Z,1.25
2017-12-30T03:18:34.586Z,1.55
2017-12-30T03:19:37.045Z,1.50
2017-12-30T03:20:39.514Z,2.17
2017-12-30T03:21:41.987Z,1.60
2017-12-30T03:22:44.479Z,1.48
2017-12-30T03:23:46.937Z,1.45
2017-12-30T03:24:49.401Z,1.83
2017-12-30T03:25:51.879Z,2.53
2017-12-30T03:26:54.356Z,1.80
2017-12-30T03:27:56.842Z,2.22
2017-12-30T03:28:59.320Z,1.92
2017-12-30T03:30:01.782Z,1.50
2017-12-30T03:31:04.237Z,1.60
2017-12-30T03:32:06.711Z,1.58
2017-12-30T03:33:09.208Z,1.52
2017-12-30T03:34:11.675Z,1.73
2017-12-30T03:35:14.143Z,2.03
2017-12-30T03:36:16.624Z,2.33
2017-12-30T03:37:19.096Z,1.50
2017-12-30T03:38:21.596Z,1.70
2017-12-30T03:39:24.066Z,1.40
2017-12-30T03:40:26.552Z,1.87
2017-12-30T03:41:29.014Z,1.52
2017-12-30T03:42:31.478Z,1.40
2017-12-30T03:43:33.966Z,2.00
2017-12-30T03:44:36.430Z,2.55
2017-12-30T03:45:38.912Z,1.83
2017-12-30T03:46:41.373Z,1.42
2017-12-30T03:47:43.847Z,1.70
2017-12-30T03:48:46.348Z,2.15
2017-12-30T03:49:48.827Z,1.80
2017-12-30T03:50:51.286Z,1.60
2017-12-30T03:51:53.761Z,1.95
2017-12-30T03:52:56.240Z,1.70
2017-12-30T03:53:58.726Z,1.55
2017-12-30T03:55:01.204Z,1.95
2017-12-30T03:56:03.688Z,1.70
2017-12-30T03:57:06.173Z,1.80
2017-12-30T03:58:07.935Z,1.90
2017-12-30T03:59:10.421Z,1.83
2017-12-30T04:00:12.882Z,1.80
2017-12-30T04:01:15.341Z,1.70
2017-12-30T04:02:17.823Z,2.00
2017-12-30T04:03:20.300Z,1.80
2017-12-30T04:04:22.777Z,1.27
2017-12-30T04:05:25.260Z,1.60
2017-12-30T04:06:27.721Z,1.50
2017-12-30T04:07:30.196Z,1.50
2017-12-30T04:08:32.671Z,1.62
2017-12-30T04:09:35.167Z,1.20
2017-12-30T04:10:37.629Z,1.95
2017-12-30T04:11:40.094Z,2.03
2017-12-30T04:12:42.562Z,1.50
2017-12-30T04:13:45.046Z,2.28
2017-12-30T04:14:47.548Z,2.50
2017-12-30T04:15:50.013Z,1.65
2017-12-30T04:16:52.490Z,1.85
2017-12-30T04:17:54.949Z,1.30
2017-12-30T04:18:57.436Z,1.55
2017-12-30T04:19:59.944Z,1.70
2017-12-30T04:21:02.411Z,1.85
2017-12-30T04:22:04.886Z,1.48
2017-12-30T04:23:07.349Z,1.40
2017-12-30T04:24:09.813Z,1.90
2017-12-30T04:25:12.307Z,1.40
2017-12-30T04:26:14.863Z,2.12
2017-12-30T04:27:17.330Z,1.98
2017-12-30T04:28:19.808Z,2.00
2017-12-30T04:29:22.266Z,1.75
2017-12-30T04:30:24.766Z,1.85
2017-12-30T04:31:27.222Z,1.40
2017-12-30T04:32:29.687Z,1.30
2017-12-30T04:33:32.165Z,1.37
2017-12-30T04:34:34.671Z,2.15
2017-12-30T04:35:37.154Z,1.50
2017-12-30T04:36:39.619Z,1.40
2017-12-30T04:37:42.112Z,1.75
2017-12-30T04:38:44.588Z,2.70
2017-12-30T04:39:47.059Z,1.92
2017-12-30T04:40:49.542Z,1.40
2017-12-30T04:41:52.023Z,2.58
2017-12-30T04:42:54.506Z,1.60
2017-12-30T04:43:56.988Z,1.73
2017-12-30T04:44:59.449Z,1.95
2017-12-30T04:46:01.923Z,1.63
2017-12-30T04:47:04.409Z,2.55
2017-12-30T04:48:06.887Z,1.35
2017-12-30T04:49:09.359Z,1.42
2017-12-30T04:50:11.821Z,1.90
2017-12-30T04:51:14.301Z,1.90
2017-12-30T04:52:16.761Z,1.55
2017-12-30T04:53:19.222Z,1.55
2017-12-30T04:54:21.741Z,2.22
2017-12-30T04:55:24.206Z,2.22
2017-12-30T04:56:26.699Z,1.90
2017-12-30T04:57:29.176Z,3.17
2017-12-30T04:58:31.660Z,2.30
2017-12-30T04:59:34.140Z,1.67
2017-12-30T05:00:36.601Z,2.03
2017-12-30T05:01:39.085Z,1.40
2017-12-30T05:02:41.572Z,2.03
2017-12-30T05:03:44.034Z,2.62
2017-12-30T05:04:46.508Z,1.83
2017-12-30T05:05:48.987Z,1.90
2017-12-30T05:06:51.479Z,1.80
2017-12-30T05:07:53.955Z,2.22
2017-12-30T05:08:56.435Z,2.55
2017-12-30T05:09:58.920Z,2.25
2017-12-30T05:11:01.391Z,2.03
2017-12-30T05:12:03.896Z,1.95
2017-12-30T05:13:06.375Z,1.58
2017-12-30T05:14:08.852Z,1.70
2017-12-30T05:15:11.325Z,1.83
2017-12-30T05:16:13.803Z,2.10
2017-12-30T05:17:16.290Z,2.40
2017-12-30T05:18:18.771Z,2.00
2017-12-30T05:19:21.252Z,2.00
2017-12-30T05:20:23.728Z,2.47
2017-12-30T05:21:26.209Z,3.17
2017-12-30T05:22:28.717Z,2.55
2017-12-30T05:23:31.186Z,2.30
2017-12-30T05:24:33.654Z,2.22
2017-12-30T05:25:36.128Z,2.50
2017-12-30T05:26:38.613Z,2.20
2017-12-30T05:27:41.104Z,2.10
2017-12-30T05:28:43.584Z,2.22
2017-12-30T05:29:46.053Z,2.00
2017-12-30T05:30:48.554Z,2.03
2017-12-30T05:31:51.022Z,2.00
2017-12-30T05:32:53.524Z,2.80
2017-12-30T05:33:56.005Z,2.55
2017-12-30T05:34:58.488Z,2.10
2017-12-30T05:36:00.950Z,2.70
2017-12-30T05:37:03.415Z,2.20
2017-12-30T05:38:05.897Z,1.67
2017-12-30T05:39:08.379Z,2.03
2017-12-30T05:40:10.894Z,1.73
2017-12-30T05:41:13.357Z,2.58
2017-12-30T05:42:15.843Z,1.98
2017-12-30T05:43:18.341Z,2.22
2017-12-30T05:44:20.837Z,1.87
2017-12-30T05:45:23.302Z,1.37
2017-12-30T05:46:25.765Z,2.00
2017-12-30T05:47:28.245Z,2.50
2017-12-30T05:48:30.751Z,1.70
2017-12-30T05:49:33.234Z,2.08
2017-12-30T05:50:35.723Z,2.10
2017-12-30T05:51:38.204Z,1.95
2017-12-30T05:52:40.680Z,1.50
2017-12-30T05:53:43.156Z,1.80
2017-12-30T05:54:45.617Z,1.85
2017-12-30T05:55:48.082Z,2.37
2017-12-30T05:56:50.554Z,2.10
2017-12-30T05:57:53.032Z,1.92
2017-12-30T05:58:55.688Z,1.40
2017-12-30T05:59:58.147Z,1.67
2017-12-30T06:01:00.613Z,1.58
2017-12-30T06:02:03.087Z,2.25
2017-12-30T06:03:05.576Z,1.85
2017-12-30T06:04:08.061Z,1.95
2017-12-30T06:05:10.536Z,1.73
2017-12-30T06:06:13.000Z,1.50
2017-12-30T06:07:15.474Z,1.73
2017-12-30T06:08:17.947Z,1.70
2017-12-30T06:09:20.448Z,1.98
2017-12-30T06:10:22.924Z,1.40
2017-12-30T06:11:25.385Z,1.73
2017-12-30T06:12:27.864Z,1.70
2017-12-30T06:13:30.336Z,1.42
2017-12-30T06:14:32.826Z,1.85
2017-12-30T06:15:35.281Z,1.97
2017-12-30T06:16:37.750Z,1.77
2017-12-30T06:17:40.214Z,1.60
2017-12-30T06:18:42.678Z,1.70
2017-12-30T06:19:45.181Z,1.67
2017-12-30T06:20:47.660Z,1.62
2017-12-30T06:21:50.125Z,1.75
2017-12-30T06:22:52.582Z,1.77
2017-12-30T06:23:55.068Z,1.60
2017-12-30T06:24:57.568Z,2.00
2017-12-30T06:26:00.046Z,2.10
2017-12-30T06:27:02.523Z,1.87
2017-12-30T06:28:04.985Z,1.90
2017-12-30T06:29:07.451Z,1.25
2017-12-30T06:30:09.951Z,1.98
2017-12-30T06:31:12.414Z,1.87
2017-12-30T06:32:14.973Z,1.48
2017-12-30T06:33:17.442Z,1.67
2017-12-30T06:34:19.910Z,1.73
2017-12-30T06:35:22.411Z,1.65
2017-12-30T06:36:24.895Z,1.70
2017-12-30T06:37:27.358Z,1.58
2017-12-30T06:38:30.812Z,1.58
2017-12-30T06:39:33.293Z,1.80
2017-12-30T06:40:35.818Z,2.22
2017-12-30T06:41:38.285Z,1.70
2017-12-30T06:42:40.764Z,1.45
2017-12-30T06:43:43.244Z,1.50
2017-12-30T06:44:45.725Z,2.05
2017-12-30T06:45:48.220Z,1.52
2017-12-30T06:46:50.681Z,2.05
2017-12-30T06:47:53.159Z,1.60
2017-12-30T06:48:55.639Z,1.35
2017-12-30T06:49:58.101Z,1.67
2017-12-30T06:51:00.618Z,1.98
2017-12-30T06:52:03.091Z,1.55
2017-12-30T06:53:05.568Z,1.90
2017-12-30T06:54:08.026Z,1.30
2017-12-30T06:55:10.486Z,1.20
2017-12-30T06:56:12.987Z,2.42
2017-12-30T06:57:15.449Z,1.25
2017-12-30T06:58:17.910Z,1.60
2017-12-30T06:59:20.391Z,1.30
2017-12-30T07:00:22.871Z,1.52
2017-12-30T07:01:25.370Z,1.50
2017-12-30T07:02:27.852Z,1.27
2017-12-30T07:03:30.328Z,1.25
2017-12-30T07:04:32.799Z,1.45
2017-12-30T07:05:35.271Z,1.33
2017-12-30T07:06:37.768Z,1.67
2017-12-30T07:07:40.225Z,1.55
2017-12-30T07:08:42.682Z,1.50
2017-12-30T07:09:45.142Z,1.73
2017-12-30T07:10:47.610Z,1.40
2017-12-30T07:11:50.106Z,1.58
2017-12-30T07:12:52.583Z,1.08
2017-12-30T07:13:55.068Z,1.70
2017-12-30T07:14:57.530Z,1.48
2017-12-30T07:15:59.986Z,1.40
2017-12-30T07:17:02.512Z,1.50
2017-12-30T07:18:04.956Z,1.10
2017-12-30T07:19:07.432Z,1.30
2017-12-30T07:20:09.898Z,1.20
2017-12-30T07:21:12.359Z,1.58
2017-12-30T07:22:14.838Z,1.00
2017-12-30T07:23:17.316Z,1.10
2017-12-30T07:24:19.784Z,1.20
2017-12-30T07:25:22.251Z,1.23
2017-12-30T07:26:24.723Z,1.65
2017-12-30T07:27:27.213Z,1.60
2017-12-30T07:28:29.674Z,1.20
2017-12-30T07:29:32.134Z,1.45
2017-12-30T07:30:34.612Z,2.10
2017-12-30T07:31:37.082Z,1.30
2017-12-30T07:32:39.561Z,1.12
2017-12-30T07:33:42.036Z,1.70
2017-12-30T07:34:44.514Z,1.33
2017-12-30T07:35:46.992Z,1.40
2017-12-30T07:36:49.464Z,1.87
2017-12-30T07:37:51.964Z,1.30
2017-12-30T07:38:54.429Z,1.98
2017-12-30T07:39:56.894Z,1.40
2017-12-30T07:40:59.354Z,1.70
2017-12-30T07:42:01.843Z,1.48
2017-12-30T07:43:04.351Z,1.17
2017-12-30T07:44:06.810Z,1.30
2017-12-30T07:45:09.288Z,1.33
2017-12-30T07:46:11.751Z,1.37
2017-12-30T07:47:14.290Z,1.20
2017-12-30T07:48:16.795Z,1.52
2017-12-30T07:49:19.254Z,1.35
2017-12-30T07:50:21.728Z,1.35
2017-12-30T07:51:24.185Z,1.75
2017-12-30T07:52:26.656Z,1.60
2017-12-30T07:53:29.138Z,1.33
2017-12-30T07:54:31.611Z,1.40
2017-12-30T07:55:34.069Z,1.40
2017-12-30T07:56:36.638Z,1.35
2017-12-30T07:57:39.115Z,1.30
2017-12-30T07:58:41.611Z,1.40
2017-12-30T07:59:44.088Z,1.67
2017-12-30T08:00:46.553Z,1.35
2017-12-30T08:01:49.024Z,1.43
2017-12-30T08:02:51.490Z,0.88
2017-12-30T08:03:54.025Z,1.10
2017-12-30T08:04:56.481Z,1.70
2017-12-30T08:05:58.930Z,1.17
2017-12-30T08:07:01.408Z,1.77
2017-12-30T08:08:03.888Z,1.75
2017-12-30T08:09:06.371Z,1.62
2017-12-30T08:10:08.852Z,1.87
2017-12-30T08:11:11.332Z,1.40
2017-12-30T08:12:13.809Z,1.92
2017-12-30T08:13:16.279Z,1.40
2017-12-30T08:14:18.784Z,1.40
2017-12-30T08:15:21.276Z,1.83
2017-12-30T08:16:23.748Z,1.48
2017-12-30T08:17:26.214Z,1.48
2017-12-30T08:18:28.687Z,1.55
2017-12-30T08:19:31.188Z,1.65
2017-12-30T08:20:33.646Z,1.70
2017-12-30T08:21:36.110Z,1.37
2017-12-30T08:22:38.573Z,1.35
2017-12-30T08:23:41.045Z,1.60
2017-12-30T08:24:43.548Z,1.90
2017-12-30T08:25:46.036Z,1.42
2017-12-30T08:26:48.512Z,1.55
2017-12-30T08:27:50.980Z,1.80
2017-12-30T08:28:53.442Z,1.60
2017-12-30T08:29:55.918Z,1.60
2017-12-30T08:30:58.397Z,1.50
2017-12-30T08:32:00.862Z,1.77
2017-12-30T08:33:03.335Z,1.70
2017-12-30T08:34:05.820Z,1.70
2017-12-30T08:35:08.302Z,1.33
2017-12-30T08:36:10.784Z,1.85
2017-12-30T08:37:13.246Z,1.90
2017-12-30T08:38:15.697Z,1.90
2017-12-30T08:39:18.176Z,1.98
2017-12-30T08:40:20.735Z,1.60
2017-12-30T08:41:23.197Z,1.60
2017-12-30T08:42:25.653Z,2.03
2017-12-30T08:43:28.133Z,1.77
2017-12-30T08:44:30.622Z,1.92
2017-12-30T08:45:33.120Z,1.25
2017-12-30T08:46:35.574Z,1.50
2017-12-30T08:47:38.038Z,2.20
2017-12-30T08:48:40.493Z,1.57
2017-12-30T08:49:42.954Z,2.08
2017-12-30T08:50:45.478Z,1.60
2017-12-30T08:51:47.951Z,1.80
2017-12-30T08:52:50.432Z,1.83
2017-12-30T08:53:52.909Z,1.27
2017-12-30T08:54:55.397Z,1.52
2017-12-30T08:55:57.900Z,1.70
2017-12-30T08:57:00.366Z,1.45
2017-12-30T08:58:02.830Z,1.48
2017-12-30T08:59:05.300Z,1.20
2017-12-30T09:00:07.788Z,1.35
2017-12-30T09:01:10.347Z,1.55
2017-12-30T09:02:12.824Z,2.08
2017-12-30T09:03:15.367Z,1.60
2017-12-30T09:04:17.823Z,1.30
2017-12-30T09:05:20.274Z,1.50
2017-12-30T09:06:22.745Z,1.33
2017-12-30T09:07:25.207Z,1.23
2017-12-30T09:08:27.661Z,1.57
2017-12-30T09:09:30.114Z,1.20
2017-12-30T09:10:32.604Z,1.10
2017-12-30T09:11:35.077Z,1.12
2017-12-30T09:12:37.533Z,1.50
2017-12-30T09:13:39.977Z,1.10
2017-12-30T09:14:42.444Z,1.40
2017-12-30T09:15:44.928Z,1.30
2017-12-30T09:16:47.378Z,1.37
2017-12-30T09:17:49.844Z,1.17
2017-12-30T09:18:52.438Z,1.20
2017-12-30T09:19:54.939Z,1.10
2017-12-30T09:20:57.400Z,1.20
2017-12-30T09:21:59.888Z,1.40
2017-12-30T09:23:02.362Z,1.20
2017-12-30T09:24:04.828Z,1.30
2017-12-30T09:25:07.299Z,1.27
2017-12-30T09:26:09.751Z,1.00
2017-12-30T09:27:12.221Z,0.87
2017-12-30T09:28:14.687Z,1.10
2017-12-30T09:29:17.153Z,1.40
2017-12-30T09:30:19.619Z,1.20
2017-12-30T09:31:22.074Z,1.27
2017-12-30T09:32:24.598Z,1.10
2017-12-30T09:33:27.050Z,1.10
2017-12-30T09:34:29.514Z,1.23
2017-12-30T09:35:31.980Z,1.20
2017-12-30T09:36:34.434Z,1.60
2017-12-30T09:37:36.927Z,1.10
2017-12-30T09:38:39.396Z,1.00
2017-12-30T09:39:41.857Z,1.17
2017-12-30T09:40:44.326Z,1.40
2017-12-30T09:41:46.778Z,0.97
2017-12-30T09:42:49.254Z,1.00
2017-12-30T09:43:51.720Z,1.17
2017-12-30T09:44:54.189Z,1.10
2017-12-30T09:45:56.651Z,1.00
2017-12-30T09:46:59.115Z,1.10
2017-12-30T09:48:01.585Z,1.10
2017-12-30T09:49:04.044Z,1.00
2017-12-30T09:50:06.536Z,0.90
2017-12-30T09:51:09.000Z,1.17
2017-12-30T09:52:11.484Z,1.10
2017-12-30T09:53:13.957Z,1.07
2017-12-30T09:54:16.509Z,1.10
2017-12-30T09:55:18.976Z,1.00
2017-12-30T09:56:21.452Z,1.60
2017-12-30T09:57:23.897Z,0.97
2017-12-30T09:58:26.421Z,1.10
2017-12-30T09:59:28.886Z,1.00
2017-12-30T10:00:31.352Z,0.90
2017-12-30T10:01:33.801Z,1.07
2017-12-30T10:02:36.263Z,1.00
2017-12-30T10:03:38.754Z,1.30
2017-12-30T10:04:41.294Z,1.20
2017-12-30T10:05:43.747Z,1.03
2017-12-30T10:06:46.205Z,1.07
2017-12-30T10:07:48.684Z,1.00
2017-12-30T10:08:51.183Z,0.97
2017-12-30T10:09:53.685Z,0.97
2017-12-30T10:10:56.120Z,0.90
2017-12-30T10:11:58.570Z,1.00
2017-12-30T10:13:01.030Z,1.10
2017-12-30T10:14:03.498Z,1.10
2017-12-30T10:15:05.950Z,1.17
2017-12-30T10:16:08.420Z,0.90
2017-12-30T10:17:10.873Z,1.10
2017-12-30T10:18:13.336Z,0.93
2017-12-30T10:19:15.828Z,1.33
2017-12-30T10:20:18.282Z,0.90
2017-12-30T10:21:20.745Z,0.93
2017-12-30T10:22:23.219Z,0.80
2017-12-30T10:23:25.683Z,0.83
2017-12-30T10:24:28.172Z,1.07
2017-12-30T10:25:30.656Z,1.10
2017-12-30T10:26:33.136Z,1.03
2017-12-30T10:27:35.586Z,0.90
2017-12-30T10:28:38.042Z,0.80
2017-12-30T10:29:40.517Z,0.90
2017-12-30T10:30:42.974Z,1.40
2017-12-30T10:31:45.443Z,0.90
2017-12-30T10:32:47.912Z,0.80
2017-12-30T10:33:50.377Z,0.83
2017-12-30T10:34:52.854Z,1.30
2017-12-30T10:35:55.312Z,1.10
2017-12-30T10:36:57.762Z,0.90
2017-12-30T10:38:00.230Z,1.33
2017-12-30T10:39:02.685Z,1.20
2017-12-30T10:40:05.176Z,1.20
2017-12-30T10:41:07.625Z,1.10
2017-12-30T10:42:10.078Z,0.80
2017-12-30T10:43:12.552Z,1.00
2017-12-30T10:44:15.006Z,1.03
2017-12-30T10:45:17.478Z,0.90
2017-12-30T10:46:19.945Z,1.40
2017-12-30T10:47:22.398Z,1.10
2017-12-30T10:48:24.846Z,1.10
2017-12-30T10:49:27.306Z,0.90
2017-12-30T10:50:29.838Z,1.00
2017-12-30T10:51:32.315Z,0.90
2017-12-30T10:52:34.780Z,0.90
2017-12-30T10:53:37.254Z,0.90
2017-12-30T10:54:39.709Z,0.93
2017-12-30T10:55:42.186Z,1.30
2017-12-30T10:56:44.656Z,0.80
2017-12-30T10:57:47.119Z,1.00
2017-12-30T10:58:49.570Z,0.93
2017-12-30T10:59:52.032Z,1.10
2017-12-30T11:00:58.482Z,0.90
2017-12-30T11:02:00.943Z,0.90
2017-12-30T11:03:03.390Z,1.00
2017-12-30T11:04:05.860Z,0.80
2017-12-30T11:05:08.323Z,0.70
2017-12-30T11:06:10.800Z,1.10
2017-12-30T11:07:13.272Z,0.93
2017-12-30T11:08:15.721Z,0.80
2017-12-30T11:09:18.173Z,1.03
2017-12-30T11:10:20.626Z,1.40
2017-12-30T11:11:23.117Z,1.40
2017-12-30T11:12:25.580Z,0.93
2017-12-30T11:13:28.043Z,0.80
2017-12-30T11:14:30.528Z,0.90
2017-12-30T11:15:32.978Z,1.13
2017-12-30T11:16:35.468Z,1.00
2017-12-30T11:17:37.932Z,0.90
2017-12-30T11:18:40.396Z,0.97
2017-12-30T11:19:42.851Z,1.10
2017-12-30T11:20:45.328Z,1.00
2017-12-30T11:21:47.812Z,0.85
2017-12-30T11:22:50.276Z,1.23
2017-12-30T11:23:52.726Z,1.23
2017-12-30T11:24:55.178Z,1.50
2017-12-30T11:25:58.808Z,1.37
2017-12-30T11:27:01.311Z,1.40
2017-12-30T11:28:03.777Z,1.80
2017-12-30T11:29:06.265Z,1.83
2017-12-30T11:30:08.760Z,1.80
2017-12-30T11:31:11.244Z,2.15
2017-12-30T11:32:13.743Z,2.30
2017-12-30T11:33:16.205Z,1.80
2017-12-30T11:34:18.674Z,1.80
2017-12-30T11:35:21.146Z,2.00
2017-12-30T11:36:23.614Z,2.30
2017-12-30T11:37:26.098Z,2.20
2017-12-30T11:38:28.575Z,2.12
2017-12-30T11:39:31.076Z,2.43
2017-12-30T11:40:33.538Z,2.55
2017-12-30T11:41:36.008Z,2.30
2017-12-30T11:42:38.490Z,2.70
2017-12-30T11:43:40.982Z,2.62
2017-12-30T11:44:43.458Z,3.17
2017-12-30T11:45:45.944Z,3.58
2017-12-30T11:46:48.410Z,3.65
2017-12-30T11:47:50.908Z,2.80
2017-12-30T11:48:53.374Z,3.00
2017-12-30T11:49:55.852Z,2.92
2017-12-30T11:50:58.331Z,3.70
2017-12-30T11:52:00.812Z,2.62
2017-12-30T11:53:03.320Z,2.80
2017-12-30T11:54:05.815Z,3.45
2017-12-30T11:55:08.301Z,2.83
2017-12-30T11:56:10.770Z,3.17
2017-12-30T11:57:13.243Z,3.60
2017-12-30T11:58:15.729Z,3.40
2017-12-30T11:59:18.465Z,3.28
2017-12-30T12:00:20.936Z,3.80
2017-12-30T12:01:23.419Z,4.10
2017-12-30T12:02:26.791Z,4.60
2017-12-30T12:03:29.287Z,4.90
2017-12-30T12:04:31.756Z,4.85
2017-12-30T12:05:34.224Z,4.15
2017-12-30T12:06:36.704Z,4.82
2017-12-30T12:07:39.180Z,5.03
2017-12-30T12:08:41.665Z,5.35
2017-12-30T12:09:44.141Z,4.65
2017-12-30T12:10:46.660Z,5.40
2017-12-30T12:11:49.164Z,5.07
2017-12-30T12:12:51.659Z,4.83
2017-12-30T12:13:54.142Z,4.37
2017-12-30T12:14:56.601Z,4.12
2017-12-30T12:15:59.061Z,4.70
2017-12-30T12:17:01.544Z,5.65
2017-12-30T12:18:04.010Z,6.05
2017-12-30T12:19:06.614Z,6.57
2017-12-30T12:20:09.105Z,6.93
2017-12-30T12:21:11.574Z,5.78
2017-12-30T12:22:14.056Z,7.12
2017-12-30T12:23:16.536Z,5.80
2017-12-30T12:24:19.035Z,7.50
2017-12-30T12:25:21.525Z,6.30
2017-12-30T12:26:23.999Z,6.35
2017-12-30T12:27:26.482Z,5.72
2017-12-30T12:28:28.971Z,6.18
2017-12-30T12:29:31.532Z,6.43
2017-12-30T12:30:34.069Z,6.70
2017-12-30T12:31:36.551Z,6.37
2017-12-30T12:32:39.013Z,5.75
2017-12-30T12:33:41.492Z,6.12
2017-12-30T12:34:43.991Z,6.10
2017-12-30T12:35:46.476Z,5.70
2017-12-30T12:36:48.938Z,7.00
2017-12-30T12:37:51.440Z,5.78
2017-12-30T12:38:53.921Z,6.15
2017-12-30T12:39:56.441Z,5.95
2017-12-30T12:40:58.906Z,5.70
2017-12-30T12:42:01.384Z,5.30
2017-12-30T12:43:03.864Z,5.60
2017-12-30T12:44:06.347Z,7.00
2017-12-30T12:45:08.864Z,6.95
2017-12-30T12:46:11.329Z,6.00
2017-12-30T12:47:13.794Z,6.00
2017-12-30T12:48:16.276Z,6.45
2017-12-30T12:49:18.747Z,7.07
2017-12-30T12:50:21.221Z,8.20
2017-12-30T12:51:23.686Z,8.57
2017-12-30T12:52:26.149Z,7.67
2017-12-30T12:53:28.632Z,8.13
2017-12-30T12:54:31.103Z,7.80
2017-12-30T12:55:33.591Z,8.88
2017-12-30T12:56:36.072Z,8.45
2017-12-30T12:57:38.556Z,9.00
2017-12-30T12:58:41.035Z,9.35
2017-12-30T12:59:43.498Z,8.02
2017-12-30T13:00:45.978Z,9.07
2017-12-30T13:01:48.450Z,9.23
2017-12-30T13:02:50.918Z,8.32
2017-12-30T13:03:53.434Z,7.62
2017-12-30T13:04:55.915Z,8.27
2017-12-30T13:05:58.400Z,8.70
2017-12-30T13:07:00.874Z,8.13
2017-12-30T13:08:03.351Z,8.82
2017-12-30T13:09:05.837Z,8.45
2017-12-30T13:10:08.308Z,8.50
2017-12-30T13:11:10.782Z,8.77
2017-12-30T13:12:13.245Z,7.87
2017-12-30T13:13:15.709Z,8.93
2017-12-30T13:14:18.205Z,8.02
2017-12-30T13:15:20.676Z,8.63
2017-12-30T13:16:23.141Z,8.50
2017-12-30T13:17:25.614Z,8.15
2017-12-30T13:18:28.092Z,9.35
2017-12-30T13:19:30.563Z,8.60
2017-12-30T13:20:33.047Z,9.40
2017-12-30T13:21:35.528Z,9.27
2017-12-30T13:22:37.993Z,9.52
2017-12-30T13:23:40.453Z,9.63
2017-12-30T13:24:42.932Z,8.40
2017-12-30T13:25:45.412Z,8.77
2017-12-30T13:26:47.904Z,9.23
2017-12-30T13:27:50.388Z,10.00
2017-12-30T13:28:52.853Z,9.45
2017-12-30T13:29:55.317Z,8.57
2017-12-30T13:30:57.786Z,9.15
2017-12-30T13:32:00.268Z,8.95
2017-12-30T13:33:02.752Z,9.30
2017-12-30T13:34:05.234Z,9.27
2017-12-30T13:35:07.704Z,8.90
2017-12-30T13:36:10.220Z,9.67
2017-12-30T13:37:12.705Z,9.48
2017-12-30T13:38:15.184Z,9.45
2017-12-30T13:39:17.659Z,9.13
2017-12-30T13:40:20.130Z,9.13
2017-12-30T13:41:22.624Z,9.70
2017-12-30T13:42:25.103Z,9.10
2017-12-30T13:43:31.992Z,8.97
2017-12-30T13:44:34.504Z,9.70
2017-12-30T13:45:37.082Z,9.38
2017-12-30T13:46:39.564Z,9.52
2017-12-30T13:47:42.046Z,10.60
2017-12-30T13:48:44.515Z,8.83
2017-12-30T13:49:46.970Z,8.73
2017-12-30T13:50:49.445Z,11.00
2017-12-30T13:51:51.928Z,10.57